createdAt,value
2017-08-21T00:00:05.032Z,0
2017-08-21T00:00:45.496Z,0
2017-08-21T00:01:25.932Z,0
2017-08-21T00:02:06.421Z,0
2017-08-21T00:02:46.857Z,0
2017-08-21T00:03:27.305Z,0
2017-08-21T00:04:07.752Z,0
2017-08-21T00:04:48.202Z,0
2017-08-21T00:05:28.666Z,0
2017-08-21T00:06:09.120Z,0
2017-08-21T00:06:49.583Z,0
2017-08-21T00:07:30.069Z,0
2017-08-21T00:08:10.527Z,0
2017-08-21T00:08:50.978Z,0
2017-08-21T00:09:31.444Z,0
2017-08-21T00:10:11.885Z,0
2017-08-21T00:10:52.345Z,0
2017-08-21T00:11:32.799Z,0
2017-08-21T00:12:13.257Z,0
2017-08-21T00:12:53.713Z,0
2017-08-21T00:13:34.156Z,0
2017-08-21T00:14:14.608Z,0
2017-08-21T00:14:55.066Z,0
2017-08-21T00:15:35.513Z,0
2017-08-21T00:16:15.982Z,0
2017-08-21T00:16:56.442Z,0
2017-08-21T00:17:36.895Z,0
2017-08-21T00:18:17.358Z,0
2017-08-21T00:18:57.818Z,0
2017-08-21T00:19:38.272Z,0
2017-08-21T00:20:18.731Z,0
2017-08-21T00:20:59.191Z,0
2017-08-21T00:21:39.652Z,0
2017-08-21T00:22:20.112Z,0
2017-08-21T00:23:00.556Z,0
2017-08-21T00:23:41.017Z,0
2017-08-21T00:24:21.445Z,0
2017-08-21T00:25:01.854Z,0
2017-08-21T00:25:42.264Z,0
2017-08-21T00:26:22.690Z,0
2017-08-21T00:27:03.111Z,0
2017-08-21T00:27:43.505Z,0
2017-08-21T00:28:23.918Z,0
2017-08-21T00:29:04.327Z,0
2017-08-21T00:29:44.756Z,0
2017-08-21T00:30:25.188Z,0
2017-08-21T00:31:05.597Z,0
2017-08-21T00:31:46.004Z,0
2017-08-21T00:32:26.422Z,0
2017-08-21T00:33:06.846Z,0
2017-08-21T00:33:47.268Z,0
2017-08-21T00:34:27.694Z,0
2017-08-21T00:35:08.121Z,0
2017-08-21T00:35:48.573Z,0
2017-08-21T00:36:29.027Z,0
2017-08-21T00:37:09.484Z,0
2017-08-21T00:37:49.934Z,0
2017-08-21T00:38:30.410Z,0
2017-08-21T00:39:10.867Z,0
2017-08-21T00:39:51.324Z,0
2017-08-21T00:40:31.783Z,0
2017-08-21T00:41:12.249Z,0
2017-08-21T00:41:52.704Z,0
2017-08-21T00:42:33.151Z,0
2017-08-21T00:43:13.596Z,0
2017-08-21T00:43:54.061Z,0
2017-08-21T00:44:34.517Z,0
2017-08-21T00:45:14.975Z,0
2017-08-21T00:45:55.432Z,0
2017-08-21T00:46:35.896Z,0
2017-08-21T00:47:16.363Z,0
2017-08-21T00:47:56.821Z,0
2017-08-21T00:48:37.276Z,0
2017-08-21T00:49:17.732Z,0
2017-08-21T00:49:58.187Z,0
2017-08-21T00:50:38.646Z,0
2017-08-21T00:51:19.109Z,0
2017-08-21T00:51:59.563Z,0
2017-08-21T00:52:40.059Z,0
2017-08-21T00:53:20.515Z,0
2017-08-21T00:54:00.970Z,0
2017-08-21T00:54:41.435Z,0
2017-08-21T00:55:21.896Z,0
2017-08-21T00:56:02.355Z,0
2017-08-21T00:56:42.808Z,0
2017-08-21T00:57:23.252Z,0
2017-08-21T00:58:03.705Z,0
2017-08-21T00:58:44.188Z,0
2017-08-21T00:59:25.017Z,0
2017-08-21T01:00:05.985Z,0
2017-08-21T01:00:46.419Z,0
2017-08-21T01:01:26.883Z,0
2017-08-21T01:02:07.345Z,0
2017-08-21T01:02:48.182Z,0
2017-08-21T01:03:28.626Z,0
2017-08-21T01:04:09.096Z,0
2017-08-21T01:04:49.552Z,0
2017-08-21T01:05:30.076Z,0
2017-08-21T01:06:10.532Z,0
2017-08-21T01:06:50.981Z,0
2017-08-21T01:07:31.440Z,0
2017-08-21T01:08:11.886Z,0
2017-08-21T01:08:52.336Z,0
2017-08-21T01:09:32.783Z,0
2017-08-21T01:10:13.232Z,0
2017-08-21T01:10:53.677Z,0
2017-08-21T01:11:34.127Z,0
2017-08-21T01:12:14.572Z,0
2017-08-21T01:12:55.053Z,0
2017-08-21T01:13:35.501Z,0
2017-08-21T01:14:15.951Z,0
2017-08-21T01:14:56.425Z,0
2017-08-21T01:15:36.853Z,0
2017-08-21T01:16:17.299Z,0
2017-08-21T01:16:57.754Z,0
2017-08-21T01:17:38.219Z,0
2017-08-21T01:18:18.699Z,0
2017-08-21T01:18:59.156Z,0
2017-08-21T01:19:39.611Z,0
2017-08-21T01:20:20.064Z,0
2017-08-21T01:21:00.530Z,0
2017-08-21T01:21:40.988Z,0
2017-08-21T01:22:21.448Z,0
2017-08-21T01:23:01.905Z,0
2017-08-21T01:23:42.385Z,0
2017-08-21T01:24:22.845Z,0
2017-08-21T01:25:03.293Z,0
2017-08-21T01:25:43.741Z,0
2017-08-21T01:26:24.196Z,0
2017-08-21T01:27:04.648Z,0
2017-08-21T01:27:45.128Z,0
2017-08-21T01:28:25.574Z,0
2017-08-21T01:29:06.023Z,0
2017-08-21T01:29:46.480Z,0
2017-08-21T01:30:26.937Z,0
2017-08-21T01:31:07.392Z,0
2017-08-21T01:31:47.848Z,0
2017-08-21T01:32:28.326Z,0
2017-08-21T01:33:08.757Z,0
2017-08-21T01:33:49.208Z,0
2017-08-21T01:34:29.677Z,0
2017-08-21T01:35:10.116Z,0
2017-08-21T01:35:50.576Z,0
2017-08-21T01:36:31.031Z,0
2017-08-21T01:37:11.470Z,0
2017-08-21T01:37:51.930Z,0
2017-08-21T01:38:32.388Z,0
2017-08-21T01:39:12.844Z,0
2017-08-21T01:39:53.306Z,0
2017-08-21T01:40:33.762Z,0
2017-08-21T01:41:14.219Z,0
2017-08-21T01:41:54.664Z,0
2017-08-21T01:42:35.116Z,0
2017-08-21T01:43:15.563Z,0
2017-08-21T01:43:56.030Z,0
2017-08-21T01:44:36.490Z,0
2017-08-21T01:45:16.943Z,0
2017-08-21T01:45:57.421Z,0
2017-08-21T01:46:37.873Z,0
2017-08-21T01:47:18.323Z,0
2017-08-21T01:47:58.764Z,0
2017-08-21T01:48:39.217Z,0
2017-08-21T01:49:19.659Z,0
2017-08-21T01:50:00.111Z,0
2017-08-21T01:50:40.556Z,0
2017-08-21T01:51:21.019Z,0
2017-08-21T01:52:01.492Z,0
2017-08-21T01:52:41.939Z,0
2017-08-21T01:53:22.390Z,0
2017-08-21T01:54:02.838Z,0
2017-08-21T01:54:43.299Z,0
2017-08-21T01:55:23.734Z,0
2017-08-21T01:56:04.198Z,0
2017-08-21T01:56:44.651Z,0
2017-08-21T01:57:25.183Z,0
2017-08-21T01:58:05.653Z,0
2017-08-21T01:58:46.106Z,0
2017-08-21T01:59:26.556Z,0
2017-08-21T02:00:07.016Z,0
2017-08-21T02:00:47.480Z,0
2017-08-21T02:01:27.936Z,0
2017-08-21T02:02:08.389Z,0
2017-08-21T02:02:48.839Z,0
2017-08-21T02:03:29.288Z,0
2017-08-21T02:04:09.737Z,0
2017-08-21T02:04:50.188Z,0
2017-08-21T02:05:30.649Z,0
2017-08-21T02:06:11.110Z,0
2017-08-21T02:06:51.572Z,0
2017-08-21T02:07:32.025Z,0
2017-08-21T02:08:12.477Z,0
2017-08-21T02:08:52.929Z,0
2017-08-21T02:09:33.398Z,0
2017-08-21T02:10:13.831Z,0
2017-08-21T02:10:54.304Z,0
2017-08-21T02:11:34.752Z,0
2017-08-21T02:12:15.204Z,0
2017-08-21T02:12:55.665Z,0
2017-08-21T02:13:36.134Z,0
2017-08-21T02:14:16.609Z,0
2017-08-21T02:14:57.065Z,0
2017-08-21T02:15:37.518Z,0
2017-08-21T02:16:17.974Z,0
2017-08-21T02:16:58.438Z,0
2017-08-21T02:17:38.892Z,0
2017-08-21T02:18:19.351Z,0
2017-08-21T02:18:59.824Z,0
2017-08-21T02:19:40.295Z,0
2017-08-21T02:20:20.758Z,0
2017-08-21T02:21:01.215Z,0
2017-08-21T02:21:41.675Z,0
2017-08-21T02:22:22.135Z,0
2017-08-21T02:23:02.613Z,0
2017-08-21T02:23:43.049Z,0
2017-08-21T02:24:23.506Z,0
2017-08-21T02:25:03.956Z,0
2017-08-21T02:25:44.425Z,0
2017-08-21T02:26:24.884Z,0
2017-08-21T02:27:05.333Z,0
2017-08-21T02:27:45.782Z,0
2017-08-21T02:28:26.236Z,0
2017-08-21T02:29:06.697Z,0
2017-08-21T02:29:47.163Z,0
2017-08-21T02:30:27.608Z,0
2017-08-21T02:31:08.058Z,0
2017-08-21T02:31:48.509Z,0
2017-08-21T02:32:28.952Z,0
2017-08-21T02:33:09.407Z,0
2017-08-21T02:33:49.848Z,0
2017-08-21T02:34:30.338Z,0
2017-08-21T02:35:10.799Z,0
2017-08-21T02:35:51.248Z,0
2017-08-21T02:36:31.715Z,0
2017-08-21T02:37:12.178Z,0
2017-08-21T02:37:52.617Z,0
2017-08-21T02:38:33.087Z,0
2017-08-21T02:39:13.542Z,0
2017-08-21T02:39:53.998Z,0
2017-08-21T02:40:34.456Z,0
2017-08-21T02:41:14.913Z,0
2017-08-21T02:41:55.367Z,0
2017-08-21T02:42:35.836Z,0
2017-08-21T02:43:16.290Z,0
2017-08-21T02:43:56.743Z,0
2017-08-21T02:44:37.198Z,0
2017-08-21T02:45:17.664Z,0
2017-08-21T02:45:58.112Z,0
2017-08-21T02:46:38.571Z,0
2017-08-21T02:47:19.058Z,0
2017-08-21T02:47:59.527Z,0
2017-08-21T02:48:39.985Z,0
2017-08-21T02:49:20.448Z,0
2017-08-21T02:50:00.911Z,0
2017-08-21T02:50:41.357Z,0
2017-08-21T02:51:21.822Z,0
2017-08-21T02:52:02.264Z,0
2017-08-21T02:52:42.708Z,0
2017-08-21T02:53:23.153Z,0
2017-08-21T02:54:03.609Z,0
2017-08-21T02:54:44.065Z,0
2017-08-21T02:55:24.518Z,0
2017-08-21T02:56:04.976Z,0
2017-08-21T02:56:45.486Z,0
2017-08-21T02:57:25.941Z,0
2017-08-21T02:58:06.393Z,0
2017-08-21T02:58:46.844Z,0
2017-08-21T02:59:27.275Z,0
2017-08-21T03:00:07.739Z,0
2017-08-21T03:00:48.195Z,0
2017-08-21T03:01:28.649Z,0
2017-08-21T03:02:09.109Z,0
2017-08-21T03:02:49.577Z,0
2017-08-21T03:05:22.631Z,0
2017-08-21T03:06:03.093Z,0
2017-08-21T03:06:43.543Z,0
2017-08-21T03:07:23.996Z,0
2017-08-21T03:08:04.457Z,0
2017-08-21T03:08:44.918Z,0
2017-08-21T03:09:25.387Z,0
2017-08-21T03:10:05.854Z,0
2017-08-21T03:10:46.304Z,0
2017-08-21T03:11:26.760Z,0
2017-08-21T03:12:07.200Z,0
2017-08-21T03:12:47.649Z,0
2017-08-21T03:13:28.100Z,0
2017-08-21T03:14:08.551Z,0
2017-08-21T03:14:49.024Z,0
2017-08-21T03:15:29.464Z,0
2017-08-21T03:16:09.931Z,0
2017-08-21T03:16:50.387Z,0
2017-08-21T03:17:30.848Z,0
2017-08-21T03:18:11.304Z,0
2017-08-21T03:18:51.742Z,0
2017-08-21T03:19:32.200Z,0
2017-08-21T03:20:12.675Z,0
2017-08-21T03:20:53.127Z,0
2017-08-21T03:21:33.595Z,0
2017-08-21T03:22:14.052Z,0
2017-08-21T03:22:54.515Z,0
2017-08-21T03:23:34.957Z,0
2017-08-21T03:24:15.418Z,0
2017-08-21T03:24:55.889Z,0
2017-08-21T03:25:36.343Z,0
2017-08-21T03:26:16.794Z,0
2017-08-21T03:26:57.255Z,0
2017-08-21T03:27:37.714Z,0
2017-08-21T03:28:18.162Z,0
2017-08-21T03:28:58.611Z,0
2017-08-21T03:29:39.063Z,0
2017-08-21T03:30:19.527Z,0
2017-08-21T03:30:59.985Z,0
2017-08-21T03:31:40.447Z,0
2017-08-21T03:32:20.904Z,0
2017-08-21T03:33:01.364Z,0
2017-08-21T03:33:41.813Z,0
2017-08-21T03:34:22.289Z,0
2017-08-21T03:35:02.752Z,0
2017-08-21T03:35:43.200Z,0
2017-08-21T03:36:23.652Z,0
2017-08-21T03:37:04.110Z,0
2017-08-21T03:37:44.581Z,0
2017-08-21T03:38:25.128Z,0
2017-08-21T03:39:05.513Z,0
2017-08-21T03:39:45.989Z,0
2017-08-21T03:40:26.443Z,0
2017-08-21T03:41:06.891Z,0
2017-08-21T03:41:47.352Z,0
2017-08-21T03:42:27.902Z,0
2017-08-21T03:43:08.360Z,0
2017-08-21T03:43:48.807Z,0
2017-08-21T03:44:29.243Z,0
2017-08-21T03:45:09.699Z,0
2017-08-21T03:45:50.144Z,0
2017-08-21T03:46:30.586Z,0
2017-08-21T03:47:11.038Z,0
2017-08-21T03:47:51.486Z,0
2017-08-21T03:48:31.938Z,0
2017-08-21T03:49:12.387Z,0
2017-08-21T03:49:52.836Z,0
2017-08-21T03:50:33.288Z,0
2017-08-21T03:51:13.747Z,0
2017-08-21T03:51:54.204Z,0
2017-08-21T03:52:34.656Z,4
2017-08-21T03:53:15.109Z,4
2017-08-21T03:53:55.563Z,4
2017-08-21T03:54:36.018Z,0
2017-08-21T03:55:16.458Z,0
2017-08-21T03:55:56.923Z,0
2017-08-21T03:56:37.387Z,0
2017-08-21T03:57:17.851Z,0
2017-08-21T03:57:58.312Z,0
2017-08-21T03:58:38.767Z,0
2017-08-21T03:59:19.233Z,0
2017-08-21T03:59:59.675Z,0
2017-08-21T04:00:40.134Z,0
2017-08-21T04:01:20.588Z,0
2017-08-21T04:02:01.043Z,0
2017-08-21T04:02:41.500Z,0
2017-08-21T04:03:21.950Z,0
2017-08-21T04:04:02.407Z,0
2017-08-21T04:04:42.862Z,0
2017-08-21T04:05:23.315Z,0
2017-08-21T04:06:03.786Z,0
2017-08-21T04:06:44.243Z,4
2017-08-21T04:07:24.692Z,4
2017-08-21T04:08:05.154Z,4
2017-08-21T04:08:45.616Z,0
2017-08-21T04:09:26.066Z,0
2017-08-21T04:10:06.518Z,0
2017-08-21T04:10:46.979Z,4
2017-08-21T04:11:27.463Z,4
2017-08-21T04:12:07.909Z,0
2017-08-21T04:12:48.367Z,4
2017-08-21T04:13:28.822Z,4
2017-08-21T04:14:09.274Z,4
2017-08-21T04:14:49.730Z,4
2017-08-21T04:15:30.185Z,4
2017-08-21T04:16:10.649Z,4
2017-08-21T04:16:51.093Z,4
2017-08-21T04:17:31.549Z,4
2017-08-21T04:18:12.004Z,8
2017-08-21T04:18:52.473Z,4
2017-08-21T04:19:32.944Z,4
2017-08-21T04:20:13.439Z,4
2017-08-21T04:20:53.886Z,4
2017-08-21T04:21:34.340Z,4
2017-08-21T04:22:14.795Z,8
2017-08-21T04:22:55.248Z,8
2017-08-21T04:23:35.697Z,8
2017-08-21T04:24:16.171Z,4
2017-08-21T04:24:56.612Z,4
2017-08-21T04:25:37.061Z,8
2017-08-21T04:26:17.513Z,8
2017-08-21T04:26:57.960Z,8
2017-08-21T04:27:38.410Z,8
2017-08-21T04:28:18.853Z,8
2017-08-21T04:28:59.306Z,12
2017-08-21T04:29:39.738Z,8
2017-08-21T04:30:20.204Z,8
2017-08-21T04:31:00.689Z,12
2017-08-21T04:33:18.603Z,12
2017-08-21T04:33:59.058Z,12
2017-08-21T04:34:39.504Z,16
2017-08-21T04:35:19.962Z,20
2017-08-21T04:36:00.403Z,16
2017-08-21T04:36:40.853Z,20
2017-08-21T04:37:21.314Z,16
2017-08-21T04:38:01.778Z,20
2017-08-21T04:38:42.233Z,20
2017-08-21T04:39:22.685Z,24
2017-08-21T04:40:03.142Z,24
2017-08-21T04:40:43.596Z,24
2017-08-21T04:41:24.052Z,28
2017-08-21T04:42:04.491Z,28
2017-08-21T04:42:44.950Z,28
2017-08-21T04:43:25.402Z,32
2017-08-21T04:44:05.845Z,32
2017-08-21T04:44:46.302Z,32
2017-08-21T04:45:26.755Z,36
2017-08-21T04:46:07.210Z,40
2017-08-21T04:46:47.671Z,40
2017-08-21T04:47:28.121Z,44
2017-08-21T04:48:08.558Z,48
2017-08-21T04:48:49.023Z,48
2017-08-21T04:49:29.505Z,52
2017-08-21T04:51:57.428Z,60
2017-08-21T04:52:37.877Z,64
2017-08-21T04:53:18.336Z,64
2017-08-21T04:53:58.811Z,72
2017-08-21T04:54:39.263Z,72
2017-08-21T04:55:19.715Z,76
2017-08-21T04:56:00.173Z,80
2017-08-21T04:56:40.629Z,88
2017-08-21T04:57:21.058Z,88
2017-08-21T04:58:01.500Z,92
2017-08-21T04:58:41.956Z,100
2017-08-21T04:59:22.412Z,100
2017-08-21T05:00:02.880Z,104
2017-08-21T05:00:43.336Z,108
2017-08-21T05:01:23.794Z,108
2017-08-21T05:02:04.261Z,112
2017-08-21T05:02:44.713Z,116
2017-08-21T05:03:25.257Z,120
2017-08-21T05:04:05.620Z,120
2017-08-21T05:04:46.076Z,120
2017-08-21T05:05:26.505Z,120
2017-08-21T05:06:06.940Z,128
2017-08-21T05:06:47.350Z,128
2017-08-21T05:07:27.742Z,132
2017-08-21T05:08:08.179Z,136
2017-08-21T05:08:48.629Z,136
2017-08-21T05:09:29.072Z,144
2017-08-21T05:10:09.521Z,148
2017-08-21T05:10:49.978Z,152
2017-08-21T05:11:30.442Z,152
2017-08-21T05:12:10.891Z,160
2017-08-21T05:12:51.345Z,164
2017-08-21T05:13:31.776Z,168
2017-08-21T05:16:04.832Z,184
2017-08-21T05:16:45.281Z,184
2017-08-21T05:17:25.737Z,188
2017-08-21T05:18:06.198Z,192
2017-08-21T05:18:46.653Z,192
2017-08-21T05:19:27.103Z,200
2017-08-21T05:20:07.546Z,204
2017-08-21T05:20:48.010Z,204
2017-08-21T05:21:28.464Z,208
2017-08-21T05:22:08.928Z,208
2017-08-21T05:22:49.366Z,212
2017-08-21T05:23:29.812Z,216
2017-08-21T05:24:10.262Z,220
2017-08-21T05:24:50.724Z,224
2017-08-21T05:25:31.178Z,224
2017-08-21T05:26:11.613Z,228
2017-08-21T05:26:52.072Z,232
2017-08-21T05:27:32.518Z,236
2017-08-21T05:28:12.962Z,240
2017-08-21T05:28:53.418Z,240
2017-08-21T05:29:33.872Z,248
2017-08-21T05:30:14.379Z,248
2017-08-21T05:30:54.783Z,252
2017-08-21T05:31:35.214Z,260
2017-08-21T05:32:15.672Z,264
2017-08-21T05:32:56.130Z,268
2017-08-21T05:33:36.586Z,272
2017-08-21T05:34:17.039Z,280
2017-08-21T05:34:57.496Z,284
2017-08-21T05:35:37.953Z,292
2017-08-21T05:36:18.425Z,296
2017-08-21T05:36:58.883Z,304
2017-08-21T05:37:39.344Z,308
2017-08-21T05:38:19.796Z,312
2017-08-21T05:39:00.255Z,312
2017-08-21T05:39:40.703Z,316
2017-08-21T05:40:21.169Z,324
2017-08-21T05:41:01.616Z,336
2017-08-21T05:41:42.065Z,344
2017-08-21T05:42:22.519Z,356
2017-08-21T05:43:02.964Z,376
2017-08-21T05:43:43.417Z,372
2017-08-21T05:44:23.892Z,368
2017-08-21T05:45:04.351Z,376
2017-08-21T05:45:44.806Z,384
2017-08-21T05:46:25.307Z,392
2017-08-21T05:48:23.013Z,416
2017-08-21T05:49:03.450Z,420
2017-08-21T05:49:43.901Z,436
2017-08-21T05:50:24.354Z,440
2017-08-21T05:51:04.803Z,456
2017-08-21T05:51:45.228Z,488
2017-08-21T05:53:42.879Z,544
2017-08-21T05:54:23.353Z,548
2017-08-21T05:55:03.786Z,552
2017-08-21T05:55:44.232Z,556
2017-08-21T05:56:24.692Z,548
2017-08-21T05:57:05.171Z,548
2017-08-21T05:57:45.649Z,580
2017-08-21T05:58:26.092Z,572
2017-08-21T05:59:06.535Z,548
2017-08-21T05:59:46.979Z,592
2017-08-21T06:00:27.424Z,556
2017-08-21T06:01:07.883Z,612
2017-08-21T06:01:48.313Z,620
2017-08-21T06:02:28.776Z,624
2017-08-21T06:03:09.214Z,620
2017-08-21T06:03:49.689Z,536
2017-08-21T06:04:30.145Z,524
2017-08-21T06:05:10.599Z,524
2017-08-21T06:05:51.052Z,528
2017-08-21T06:06:31.518Z,536
2017-08-21T06:07:11.973Z,560
2017-08-21T06:07:52.430Z,548
2017-08-21T06:08:32.878Z,556
2017-08-21T06:09:13.329Z,556
2017-08-21T06:09:53.782Z,556
2017-08-21T06:10:34.236Z,664
2017-08-21T06:11:14.676Z,640
2017-08-21T06:11:55.140Z,592
2017-08-21T06:12:35.598Z,564
2017-08-21T06:13:16.039Z,688
2017-08-21T06:13:56.507Z,612
2017-08-21T06:14:36.956Z,680
2017-08-21T06:15:17.411Z,696
2017-08-21T06:15:57.891Z,696
2017-08-21T06:16:38.347Z,616
2017-08-21T06:17:18.809Z,588
2017-08-21T06:17:59.260Z,672
2017-08-21T06:18:39.696Z,616
2017-08-21T06:19:20.154Z,588
2017-08-21T06:20:00.693Z,588
2017-08-21T06:20:41.142Z,584
2017-08-21T06:21:21.609Z,588
2017-08-21T06:22:02.059Z,596
2017-08-21T06:22:42.506Z,608
2017-08-21T06:23:22.972Z,632
2017-08-21T06:24:03.407Z,832
2017-08-21T06:24:43.860Z,816
2017-08-21T06:25:24.309Z,860
2017-08-21T06:26:04.780Z,744
2017-08-21T06:26:45.245Z,852
2017-08-21T06:27:25.686Z,888
2017-08-21T06:28:06.145Z,720
2017-08-21T06:28:46.601Z,880
2017-08-21T06:29:27.057Z,868
2017-08-21T06:30:07.521Z,928
2017-08-21T06:30:47.971Z,916
2017-08-21T06:31:28.434Z,880
2017-08-21T06:32:08.888Z,708
2017-08-21T06:32:49.346Z,700
2017-08-21T06:33:29.802Z,680
2017-08-21T06:34:10.248Z,656
2017-08-21T06:34:50.691Z,640
2017-08-21T06:35:31.138Z,616
2017-08-21T06:36:11.584Z,608
2017-08-21T06:36:52.044Z,592
2017-08-21T06:37:32.518Z,576
2017-08-21T06:38:12.973Z,572
2017-08-21T06:38:53.433Z,648
2017-08-21T06:39:33.879Z,688
2017-08-21T06:40:14.329Z,572
2017-08-21T06:40:54.783Z,568
2017-08-21T06:41:35.236Z,580
2017-08-21T06:42:15.682Z,696
2017-08-21T06:42:56.143Z,740
2017-08-21T06:43:36.594Z,936
2017-08-21T06:44:17.044Z,904
2017-08-21T06:44:57.530Z,968
2017-08-21T06:45:37.976Z,996
2017-08-21T06:46:18.429Z,988
2017-08-21T06:46:58.887Z,832
2017-08-21T06:47:39.338Z,992
2017-08-21T06:48:19.801Z,776
2017-08-21T06:49:00.253Z,764
2017-08-21T06:49:40.735Z,880
2017-08-21T06:50:21.197Z,960
2017-08-21T06:51:01.653Z,944
2017-08-21T06:51:42.107Z,1088
2017-08-21T06:52:22.561Z,1228
2017-08-21T06:53:03.010Z,988
2017-08-21T06:53:43.457Z,1268
2017-08-21T06:54:23.920Z,1292
2017-08-21T06:55:04.378Z,1192
2017-08-21T06:55:44.830Z,1240
2017-08-21T06:56:25.312Z,1324
2017-08-21T06:57:05.759Z,1400
2017-08-21T06:57:46.214Z,1404
2017-08-21T06:58:26.647Z,984
2017-08-21T06:59:07.102Z,996
2017-08-21T06:59:47.577Z,1396
2017-08-21T07:00:28.020Z,1052
2017-08-21T07:01:08.467Z,992
2017-08-21T07:01:48.920Z,996
2017-08-21T07:02:29.377Z,1032
2017-08-21T07:03:09.827Z,1232
2017-08-21T07:03:50.294Z,1040
2017-08-21T07:04:30.753Z,1052
2017-08-21T07:05:11.201Z,1536
2017-08-21T07:05:51.661Z,1588
2017-08-21T07:06:32.115Z,1528
2017-08-21T07:07:12.567Z,1400
2017-08-21T07:07:53.019Z,1116
2017-08-21T07:08:33.466Z,1496
2017-08-21T07:09:13.937Z,1324
2017-08-21T07:09:54.395Z,1528
2017-08-21T07:10:34.844Z,1412
2017-08-21T07:11:15.287Z,1644
2017-08-21T07:11:55.765Z,1780
2017-08-21T07:12:36.212Z,1764
2017-08-21T07:13:16.666Z,1768
2017-08-21T07:13:57.112Z,1764
2017-08-21T07:14:37.566Z,1764
2017-08-21T07:15:18.015Z,1432
2017-08-21T07:15:58.470Z,1804
2017-08-21T07:16:38.924Z,1800
2017-08-21T07:17:19.363Z,1852
2017-08-21T07:17:59.833Z,1876
2017-08-21T07:18:40.295Z,1904
2017-08-21T07:19:20.743Z,1892
2017-08-21T07:20:01.200Z,1904
2017-08-21T07:20:41.639Z,1920
2017-08-21T07:21:22.086Z,1884
2017-08-21T07:22:02.546Z,1936
2017-08-21T07:22:43.007Z,1940
2017-08-21T07:23:23.462Z,1984
2017-08-21T07:24:03.914Z,1984
2017-08-21T07:24:44.359Z,1960
2017-08-21T07:25:24.817Z,2040
2017-08-21T07:26:05.266Z,2016
2017-08-21T07:26:45.764Z,1976
2017-08-21T07:27:26.215Z,2036
2017-08-21T07:28:06.693Z,2064
2017-08-21T07:28:47.137Z,2092
2017-08-21T07:29:27.586Z,2108
2017-08-21T07:30:08.044Z,2136
2017-08-21T07:30:48.494Z,2152
2017-08-21T07:31:28.942Z,2156
2017-08-21T07:32:09.401Z,2160
2017-08-21T07:32:49.857Z,2164
2017-08-21T07:33:30.315Z,2172
2017-08-21T07:34:10.792Z,2168
2017-08-21T07:34:51.237Z,2148
2017-08-21T07:35:31.694Z,2120
2017-08-21T07:36:12.151Z,2164
2017-08-21T07:36:52.604Z,2184
2017-08-21T07:37:33.063Z,2208
2017-08-21T07:38:13.512Z,2224
2017-08-21T07:38:53.998Z,2260
2017-08-21T07:39:34.468Z,2260
2017-08-21T07:40:14.924Z,2264
2017-08-21T07:40:55.363Z,2256
2017-08-21T07:41:35.839Z,2276
2017-08-21T07:42:16.286Z,2308
2017-08-21T07:42:56.745Z,2316
2017-08-21T07:43:37.215Z,2332
2017-08-21T07:44:17.664Z,2352
2017-08-21T07:44:58.125Z,2380
2017-08-21T07:45:38.583Z,2392
2017-08-21T07:46:19.041Z,2420
2017-08-21T07:46:59.495Z,2448
2017-08-21T07:47:39.957Z,2488
2017-08-21T07:48:20.419Z,2492
2017-08-21T07:49:00.876Z,2516
2017-08-21T07:51:19.044Z,2536
2017-08-21T07:51:59.261Z,2552
2017-08-21T07:52:39.720Z,2564
2017-08-21T07:53:20.172Z,2584
2017-08-21T07:54:00.630Z,2600
2017-08-21T07:54:41.069Z,2596
2017-08-21T07:55:21.593Z,2620
2017-08-21T07:56:01.991Z,2644
2017-08-21T07:56:42.451Z,2668
2017-08-21T07:57:22.903Z,2672
2017-08-21T07:58:03.361Z,2680
2017-08-21T07:58:43.853Z,2704
2017-08-21T07:59:24.318Z,2724
2017-08-21T08:00:04.778Z,2716
2017-08-21T08:00:45.242Z,2728
2017-08-21T08:01:25.697Z,2768
2017-08-21T08:02:06.232Z,2784
2017-08-21T08:02:46.677Z,2792
2017-08-21T08:03:27.130Z,2812
2017-08-21T08:04:07.585Z,2828
2017-08-21T08:04:48.043Z,2840
2017-08-21T08:07:21.114Z,2828
2017-08-21T08:08:01.568Z,2824
2017-08-21T08:08:42.006Z,2848
2017-08-21T08:09:22.445Z,2844
2017-08-21T08:10:02.883Z,2864
2017-08-21T08:10:43.337Z,2856
2017-08-21T08:11:23.787Z,2868
2017-08-21T08:12:04.244Z,2868
2017-08-21T08:12:44.699Z,2864
2017-08-21T08:13:25.157Z,2860
2017-08-21T08:14:05.593Z,2864
2017-08-21T08:14:46.042Z,2864
2017-08-21T08:15:26.489Z,2888
2017-08-21T08:16:06.948Z,2908
2017-08-21T08:16:47.375Z,2912
2017-08-21T08:17:27.834Z,2940
2017-08-21T08:18:08.310Z,2944
2017-08-21T08:18:48.749Z,2956
2017-08-21T08:19:29.148Z,2948
2017-08-21T08:20:09.568Z,2964
2017-08-21T08:20:50.022Z,2960
2017-08-21T08:21:30.488Z,2956
2017-08-21T08:22:10.963Z,2980
2017-08-21T08:22:51.404Z,2984
2017-08-21T08:23:31.859Z,2992
2017-08-21T08:24:12.322Z,2988
2017-08-21T08:24:52.765Z,3000
2017-08-21T08:26:50.487Z,3048
2017-08-21T08:27:30.957Z,3064
2017-08-21T08:28:11.419Z,3096
2017-08-21T08:28:51.873Z,3120
2017-08-21T08:29:32.323Z,3148
2017-08-21T08:30:12.783Z,3160
2017-08-21T08:30:53.233Z,3184
2017-08-21T08:31:33.691Z,3200
2017-08-21T08:32:14.139Z,3204
2017-08-21T08:32:54.588Z,3204
2017-08-21T08:33:35.016Z,3232
2017-08-21T08:34:15.475Z,3260
2017-08-21T08:34:55.924Z,3260
2017-08-21T08:35:36.362Z,3280
2017-08-21T08:36:16.824Z,3280
2017-08-21T08:36:57.271Z,3280
2017-08-21T08:37:37.736Z,3280
2017-08-21T08:38:18.195Z,3320
2017-08-21T08:38:58.649Z,3328
2017-08-21T08:39:39.109Z,3332
2017-08-21T08:40:19.568Z,3324
2017-08-21T08:41:00.022Z,3328
2017-08-21T08:41:40.467Z,3332
2017-08-21T08:42:20.906Z,3312
2017-08-21T08:43:01.367Z,3328
2017-08-21T08:43:41.823Z,3328
2017-08-21T08:44:22.279Z,3320
2017-08-21T08:45:02.724Z,3320
2017-08-21T08:45:43.172Z,3312
2017-08-21T08:46:23.631Z,3340
2017-08-21T08:47:04.078Z,3372
2017-08-21T08:47:44.524Z,3396
2017-08-21T08:48:24.971Z,3384
2017-08-21T08:49:05.428Z,3408
2017-08-21T08:49:45.864Z,3416
2017-08-21T08:50:26.340Z,3432
2017-08-21T08:51:06.769Z,3444
2017-08-21T08:51:47.206Z,3472
2017-08-21T08:52:27.655Z,3476
2017-08-21T08:53:08.106Z,3484
2017-08-21T08:53:48.550Z,3508
2017-08-21T08:54:29.000Z,3528
2017-08-21T08:55:09.460Z,3532
2017-08-21T08:55:49.921Z,3548
2017-08-21T08:56:30.394Z,3556
2017-08-21T08:57:10.858Z,3544
2017-08-21T08:57:51.339Z,3552
2017-08-21T08:58:31.787Z,3572
2017-08-21T08:59:12.233Z,3576
2017-08-21T08:59:52.700Z,3588
2017-08-21T09:00:33.147Z,3576
2017-08-21T09:01:13.612Z,3568
2017-08-21T09:01:54.076Z,3580
2017-08-21T09:02:34.541Z,3604
2017-08-21T09:03:14.999Z,3648
2017-08-21T09:03:55.456Z,3664
2017-08-21T09:04:35.920Z,3644
2017-08-21T09:05:16.384Z,3640
2017-08-21T09:05:56.912Z,3648
2017-08-21T09:06:37.403Z,3652
2017-08-21T09:07:17.858Z,3660
2017-08-21T09:07:58.341Z,3668
2017-08-21T09:08:38.799Z,3680
2017-08-21T09:09:19.263Z,3684
2017-08-21T09:09:59.788Z,3684
2017-08-21T09:10:40.167Z,3680
2017-08-21T09:11:20.682Z,3660
2017-08-21T09:12:01.128Z,3652
2017-08-21T09:12:41.592Z,3676
2017-08-21T09:13:22.054Z,3700
2017-08-21T09:14:02.575Z,3708
2017-08-21T09:14:43.017Z,3712
2017-08-21T09:15:23.889Z,3720
2017-08-21T09:16:04.319Z,3720
2017-08-21T09:16:44.763Z,3736
2017-08-21T09:17:25.389Z,3740
2017-08-21T09:18:05.840Z,3748
2017-08-21T09:18:46.286Z,3756
2017-08-21T09:19:26.744Z,3772
2017-08-21T09:20:07.194Z,3780
2017-08-21T09:20:47.923Z,3776
2017-08-21T09:21:29.038Z,3780
2017-08-21T09:23:42.047Z,3812
2017-08-21T09:24:22.952Z,3808
2017-08-21T09:25:03.415Z,3812
2017-08-21T09:25:43.867Z,3840
2017-08-21T09:26:24.324Z,3852
2017-08-21T09:27:04.781Z,3840
2017-08-21T09:27:45.230Z,3828
2017-08-21T09:28:25.732Z,3832
2017-08-21T09:29:06.180Z,3844
2017-08-21T09:29:46.637Z,3868
2017-08-21T09:30:27.086Z,3892
2017-08-21T09:31:07.534Z,3896
2017-08-21T09:31:47.981Z,3928
2017-08-21T09:32:28.427Z,3968
2017-08-21T09:33:08.871Z,3992
2017-08-21T09:33:49.340Z,4020
2017-08-21T09:34:29.802Z,4044
2017-08-21T09:35:10.270Z,4032
2017-08-21T09:35:50.721Z,4032
2017-08-21T09:36:31.173Z,4040
2017-08-21T09:37:11.625Z,4032
2017-08-21T09:37:52.068Z,4020
2017-08-21T09:38:32.595Z,4028
2017-08-21T09:39:13.336Z,3980
2017-08-21T09:39:53.789Z,4016
2017-08-21T09:40:34.245Z,1716
2017-08-21T09:41:14.708Z,1692
2017-08-21T09:41:55.225Z,1772
2017-08-21T09:42:35.671Z,3684
2017-08-21T09:43:16.314Z,3948
2017-08-21T09:43:56.571Z,3844
2017-08-21T09:44:37.036Z,3796
2017-08-21T09:45:17.495Z,3564
2017-08-21T09:45:58.243Z,1416
2017-08-21T09:46:38.691Z,1292